createdAt,value
2023-02-25T00:00:55.008Z,77.51
2023-02-25T00:03:23.745Z,75.50
2023-02-25T00:05:56.820Z,76.79
2023-02-25T00:08:26.053Z,77.52
2023-02-25T00:10:58.765Z,76.43
2023-02-25T00:13:26.799Z,77.98
2023-02-25T00:16:03.172Z,77.84
2023-02-25T00:18:31.981Z,76.40
2023-02-25T00:21:04.987Z,80.33
2023-02-25T00:23:34.272Z,78.95
2023-02-25T00:26:02.999Z,80.56
2023-02-25T00:28:33.112Z,81.01
2023-02-25T00:31:01.334Z,80.75
2023-02-25T00:33:31.602Z,79.61
2023-02-25T00:36:03.341Z,81.30
2023-02-25T00:38:31.480Z,83.21
2023-02-25T00:41:08.956Z,83.27
2023-02-25T00:43:42.613Z,83.24
2023-02-25T00:46:13.876Z,83.42
2023-02-25T00:48:42.151Z,83.91
2023-02-25T00:51:14.705Z,83.42
2023-02-25T00:53:43.033Z,83.64
2023-02-25T00:56:16.623Z,82.30
2023-02-25T00:58:45.101Z,82.48
2023-02-25T01:01:23.445Z,83.11
2023-02-25T01:03:57.302Z,82.18
2023-02-25T01:06:25.559Z,82.20
2023-02-25T01:08:54.843Z,81.31
2023-02-25T01:11:27.728Z,82.28
2023-02-25T01:13:56.299Z,82.14
2023-02-25T01:16:27.486Z,81.46
2023-02-25T01:18:57.583Z,83.25
2023-02-25T01:21:27.739Z,82.04
2023-02-25T01:23:58.886Z,81.71
2023-02-25T01:26:29.887Z,83.08
2023-02-25T01:28:58.412Z,83.10
2023-02-25T01:31:29.521Z,81.59
2023-02-25T01:33:58.621Z,82.27
2023-02-25T01:36:32.301Z,81.87
2023-02-25T01:39:01.943Z,80.66
2023-02-25T01:41:32.257Z,78.91
2023-02-25T01:44:12.406Z,81.23
2023-02-25T01:46:44.119Z,80.66
2023-02-25T01:49:14.841Z,78.23
2023-02-25T01:51:47.514Z,80.91
2023-02-25T01:54:19.341Z,79.25
2023-02-25T01:56:51.638Z,79.94
2023-02-25T01:59:29.169Z,78.73
2023-02-25T02:02:00.342Z,77.70
2023-02-25T02:04:28.303Z,79.18
2023-02-25T02:06:56.939Z,77.30
2023-02-25T02:09:27.962Z,77.22
2023-02-25T02:12:07.105Z,76.87
2023-02-25T02:14:44.386Z,75.23
2023-02-25T02:17:21.750Z,73.43
2023-02-25T02:20:07.215Z,73.76
2023-02-25T02:22:40.229Z,71.34
2023-02-25T02:25:27.072Z,73.38
2023-02-25T02:28:20.987Z,75.06
2023-02-25T02:31:14.415Z,76.56
2023-02-25T02:33:50.712Z,76.60
2023-02-25T02:36:25.140Z,75.74
2023-02-25T02:38:58.404Z,78.47
2023-02-25T02:41:34.122Z,78.08
2023-02-25T02:44:06.969Z,77.98
2023-02-25T02:46:39.465Z,76.69
2023-02-25T02:49:12.349Z,77.39
2023-02-25T02:51:45.211Z,77.70
2023-02-25T02:54:15.185Z,78.35
2023-02-25T02:56:48.751Z,76.79
2023-02-25T02:59:20.809Z,77.79
2023-02-25T03:01:57.519Z,79.13
2023-02-25T03:04:29.139Z,77.93
2023-02-25T03:07:01.261Z,76.24
2023-02-25T03:09:37.297Z,76.48
2023-02-25T03:12:11.158Z,76.13
2023-02-25T03:14:39.632Z,75.48
2023-02-25T03:17:15.064Z,75.90
2023-02-25T03:19:46.172Z,75.78
2023-02-25T03:22:18.176Z,75.28
2023-02-25T03:24:50.066Z,76.22
2023-02-25T03:27:27.828Z,73.91
2023-02-25T03:29:58.504Z,74.72
2023-02-25T03:32:30.959Z,75.93
2023-02-25T03:35:04.391Z,74.25
2023-02-25T03:37:33.999Z,75.43
2023-02-25T03:40:10.812Z,73.81
2023-02-25T03:42:44.186Z,74.03
2023-02-25T03:45:15.597Z,73.15
2023-02-25T03:47:45.006Z,73.25
2023-02-25T03:50:17.588Z,71.37
2023-02-25T03:52:45.459Z,72.12
2023-02-25T03:55:24.413Z,72.77
2023-02-25T03:57:53.084Z,74.06
2023-02-25T04:00:23.445Z,72.02
2023-02-25T04:02:55.995Z,71.89
2023-02-25T04:05:28.121Z,73.08
2023-02-25T04:07:58.617Z,71.45
2023-02-25T04:10:30.845Z,72.27
2023-02-25T04:12:59.057Z,74.03
2023-02-25T04:15:29.511Z,74.79
2023-02-25T04:17:58.723Z,74.69
2023-02-25T04:20:30.436Z,76.52
2023-02-25T04:22:58.324Z,75.17
2023-02-25T04:25:26.903Z,75.60
2023-02-25T04:27:54.750Z,74.73
2023-02-25T04:30:26.899Z,74.62
2023-02-25T04:32:58.587Z,73.63
2023-02-25T04:35:30.327Z,74.04
2023-02-25T04:38:00.990Z,72.58
2023-02-25T04:40:29.095Z,70.97
2023-02-25T04:42:59.880Z,71.21
2023-02-25T04:45:29.395Z,72.80
2023-02-25T04:47:58.108Z,70.38
2023-02-25T04:50:27.713Z,70.09
2023-02-25T04:52:55.862Z,68.95
2023-02-25T04:55:25.795Z,69.48
2023-02-25T04:57:53.676Z,70.22
2023-02-25T05:00:24.363Z,69.24
2023-02-25T05:02:52.942Z,67.83
2023-02-25T05:05:26.373Z,67.64
2023-02-25T05:07:58.810Z,67.97
2023-02-25T05:10:27.064Z,67.98
2023-02-25T05:12:57.097Z,69.52
2023-02-25T05:15:28.258Z,69.13
2023-02-25T05:17:56.077Z,68.89
2023-02-25T05:20:27.087Z,68.60
2023-02-25T05:22:56.714Z,69.37
2023-02-25T05:25:25.708Z,67.86
2023-02-25T05:27:56.026Z,67.55
2023-02-25T05:30:23.902Z,66.38
2023-02-25T05:32:54.585Z,64.87
2023-02-25T05:35:22.527Z,65.24
2023-02-25T05:37:52.111Z,66.73
2023-02-25T05:40:23.910Z,66.20
2023-02-25T05:42:59.876Z,64.95
2023-02-25T05:45:27.971Z,65.76
2023-02-25T05:47:57.446Z,66.38
2023-02-25T05:50:25.447Z,66.06
2023-02-25T05:52:54.310Z,65.77
2023-02-25T05:55:24.235Z,63.83
2023-02-25T05:57:52.114Z,64.82
2023-02-25T06:00:21.620Z,65.95
2023-02-25T06:02:50.833Z,65.28
2023-02-25T06:05:21.627Z,64.70
2023-02-25T06:07:54.164Z,64.62
2023-02-25T06:10:23.403Z,64.05
2023-02-25T06:12:58.450Z,64.17
2023-02-25T06:15:29.167Z,65.46
2023-02-25T06:17:58.231Z,66.46
2023-02-25T06:20:30.884Z,66.96
2023-02-25T06:22:59.652Z,65.50
2023-02-25T06:25:30.329Z,64.49
2023-02-25T06:27:58.238Z,65.01
2023-02-25T06:30:28.332Z,65.31
2023-02-25T06:32:57.698Z,66.35
2023-02-25T06:35:26.018Z,65.67
2023-02-25T06:37:57.725Z,64.64
2023-02-25T06:40:33.574Z,65.47
2023-02-25T06:43:02.529Z,66.44
2023-02-25T06:45:31.102Z,66.12
2023-02-25T06:48:03.995Z,66.48
2023-02-25T06:50:34.338Z,67.29
2023-02-25T06:53:02.278Z,66.78
2023-02-25T06:55:30.538Z,66.96
2023-02-25T06:58:01.079Z,67.94
2023-02-25T07:00:29.140Z,67.57
2023-02-25T07:02:57.326Z,66.80
2023-02-25T07:05:29.040Z,66.60
2023-02-25T07:07:56.865Z,67.62
2023-02-25T07:10:25.099Z,65.79
2023-02-25T07:12:55.756Z,65.61
2023-02-25T07:15:25.001Z,65.48
2023-02-25T07:17:52.923Z,63.97
2023-02-25T07:20:25.397Z,64.16
2023-02-25T07:22:53.239Z,65.96
2023-02-25T07:25:26.389Z,64.78
2023-02-25T07:27:55.003Z,62.11
2023-02-25T07:30:31.328Z,63.25
2023-02-25T07:33:03.001Z,65.88
2023-02-25T07:35:31.250Z,64.61
2023-02-25T07:38:02.085Z,64.42
2023-02-25T07:40:29.977Z,64.04
2023-02-25T07:42:59.220Z,64.72
2023-02-25T07:45:28.437Z,63.69
2023-02-25T07:47:58.419Z,64.14
2023-02-25T07:50:28.223Z,63.97
2023-02-25T07:53:00.898Z,64.12
2023-02-25T07:55:34.373Z,64.49
2023-02-25T07:58:09.292Z,63.32
2023-02-25T08:00:39.605Z,63.39
2023-02-25T08:03:09.825Z,63.12
2023-02-25T08:05:40.190Z,61.88
2023-02-25T08:08:10.767Z,60.63
2023-02-25T08:10:39.069Z,61.14
2023-02-25T08:13:14.249Z,62.17
2023-02-25T08:15:50.613Z,62.94
2023-02-25T08:18:19.790Z,63.08
2023-02-25T08:20:48.294Z,63.67
2023-02-25T08:23:16.649Z,62.35
2023-02-25T08:25:44.978Z,60.98
2023-02-25T08:28:14.028Z,64.51
2023-02-25T08:30:43.838Z,64.63
2023-02-25T08:33:11.868Z,63.43
2023-02-25T08:35:39.749Z,64.08
2023-02-25T08:38:08.052Z,62.52
2023-02-25T08:40:35.890Z,62.22
2023-02-25T08:43:11.296Z,64.25
2023-02-25T08:45:47.162Z,64.53
2023-02-25T08:48:17.086Z,65.19
2023-02-25T08:50:49.796Z,63.87
2023-02-25T08:53:17.710Z,64.73
2023-02-25T08:55:51.051Z,63.75
2023-02-25T08:58:19.214Z,63.83
2023-02-25T09:00:50.480Z,63.03
2023-02-25T09:03:19.038Z,60.78
2023-02-25T09:05:52.889Z,61.37
2023-02-25T09:08:21.055Z,61.11
2023-02-25T09:10:55.092Z,60.88
2023-02-25T09:13:26.750Z,58.97
2023-02-25T09:16:00.139Z,57.68
2023-02-25T09:18:28.683Z,57.56
2023-02-25T09:20:59.541Z,57.83
2023-02-25T09:23:29.691Z,55.35
2023-02-25T09:26:02.989Z,56.00
2023-02-25T09:28:32.669Z,56.23
2023-02-25T09:31:02.606Z,56.34
2023-02-25T09:33:38.396Z,55.66
2023-02-25T09:36:09.068Z,55.73
2023-02-25T09:38:37.129Z,56.01
2023-02-25T09:41:11.030Z,57.25
2023-02-25T09:43:42.498Z,58.99
2023-02-25T09:46:19.006Z,58.31
2023-02-25T09:48:54.100Z,57.96
2023-02-25T09:51:24.730Z,59.50
2023-02-25T09:53:56.308Z,58.12
2023-02-25T09:56:28.344Z,57.37
2023-02-25T09:58:58.421Z,57.06
2023-02-25T10:01:34.988Z,56.45
2023-02-25T10:04:09.414Z,55.30
2023-02-25T10:06:39.554Z,55.66
2023-02-25T10:09:17.076Z,57.32
2023-02-25T10:11:53.545Z,56.87
2023-02-25T10:14:48.033Z,57.70
2023-02-25T10:17:23.866Z,57.73
2023-02-25T10:20:03.113Z,57.71
2023-02-25T10:22:40.373Z,58.08
2023-02-25T10:25:17.022Z,56.56
2023-02-25T10:27:48.147Z,55.94
2023-02-25T10:30:21.206Z,55.59
2023-02-25T10:32:51.813Z,55.59
2023-02-25T10:35:24.166Z,56.03
2023-02-25T10:37:55.018Z,56.12
2023-02-25T10:40:24.894Z,55.00
2023-02-25T10:42:57.381Z,56.04
2023-02-25T10:45:31.466Z,56.73
2023-02-25T10:48:05.887Z,58.16
2023-02-25T10:50:45.549Z,56.75
2023-02-25T10:53:17.030Z,55.92
2023-02-25T10:55:54.866Z,57.47
2023-02-25T10:58:47.812Z,57.70
2023-02-25T11:01:20.400Z,57.45
2023-02-25T11:03:59.366Z,57.66
2023-02-25T11:06:29.380Z,58.05
2023-02-25T11:09:02.100Z,56.79
2023-02-25T11:11:32.680Z,57.24
2023-02-25T11:14:03.538Z,57.05
2023-02-25T11:16:36.585Z,55.26
2023-02-25T11:19:15.136Z,57.00
2023-02-25T11:21:48.882Z,58.50
2023-02-25T11:24:23.486Z,59.10
2023-02-25T11:26:52.860Z,58.19
2023-02-25T11:29:26.174Z,59.22
2023-02-25T11:31:59.722Z,58.85
2023-02-25T11:34:32.943Z,58.69
2023-02-25T11:37:27.334Z,57.39
2023-02-25T11:39:59.279Z,58.98
2023-02-25T11:42:30.257Z,58.36
2023-02-25T11:45:04.952Z,58.98
2023-02-25T11:47:35.185Z,59.05
2023-02-25T11:50:21.098Z,59.09
2023-02-25T11:53:02.500Z,57.52
2023-02-25T11:55:42.852Z,57.76
2023-02-25T11:58:19.999Z,57.89
2023-02-25T12:00:55.320Z,61.21
2023-02-25T12:03:41.650Z,60.58
2023-02-25T12:06:20.112Z,61.25
2023-02-25T12:09:19.151Z,63.17
2023-02-25T12:12:12.315Z,60.91
2023-02-25T12:15:19.394Z,61.31
2023-02-25T12:18:18.009Z,61.81
2023-02-25T12:21:05.813Z,61.88
2023-02-25T12:23:57.471Z,62.96
2023-02-25T12:26:37.928Z,63.79
2023-02-25T12:29:13.319Z,63.86
2023-02-25T12:31:58.135Z,63.80
2023-02-25T12:34:38.784Z,64.74
2023-02-25T12:37:27.209Z,64.14
2023-02-25T12:40:05.457Z,63.64
2023-02-25T12:42:44.038Z,64.37
2023-02-25T12:45:42.861Z,66.57
2023-02-25T12:48:56.145Z,68.66
2023-02-25T12:51:41.801Z,67.61
2023-02-25T12:54:26.645Z,66.91
2023-02-25T12:57:05.071Z,68.93
2023-02-25T12:59:50.861Z,70.74
2023-02-25T13:02:52.739Z,70.16
2023-02-25T13:05:50.261Z,69.38
2023-02-25T13:08:45.074Z,69.19
2023-02-25T13:11:22.444Z,72.57
2023-02-25T13:14:22.025Z,71.21
2023-02-25T13:17:29.077Z,72.06
2023-02-25T13:20:27.277Z,70.38
2023-02-25T13:23:05.898Z,70.23
2023-02-25T13:25:51.777Z,67.39
2023-02-25T13:28:33.620Z,67.79
2023-02-25T13:31:08.438Z,65.65
2023-02-25T13:33:49.853Z,66.67
2023-02-25T13:36:37.905Z,65.01
2023-02-25T13:39:24.650Z,64.34
2023-02-25T13:42:16.659Z,63.78
2023-02-25T13:45:03.415Z,63.21
2023-02-25T13:47:44.795Z,61.63
2023-02-25T13:50:36.959Z,59.02
2023-02-25T13:53:20.844Z,57.70
2023-02-25T13:56:07.300Z,57.89
2023-02-25T13:58:49.713Z,58.37
2023-02-25T14:01:28.738Z,58.55
2023-02-25T14:04:50.373Z,57.70
2023-02-25T14:07:34.143Z,57.30
2023-02-25T14:10:18.426Z,55.52
2023-02-25T14:13:04.629Z,54.49
2023-02-25T14:15:44.648Z,54.52
2023-02-25T14:18:33.711Z,53.78
2023-02-25T14:21:12.924Z,54.93
2023-02-25T14:23:48.643Z,56.92
2023-02-25T14:26:25.744Z,57.10
2023-02-25T14:29:12.273Z,59.36
2023-02-25T14:31:50.619Z,57.99
2023-02-25T14:34:31.027Z,58.01
2023-02-25T14:37:22.308Z,59.58
2023-02-25T14:40:08.806Z,59.06
2023-02-25T14:43:00.147Z,59.23
2023-02-25T14:45:33.069Z,58.93
2023-02-25T14:48:04.142Z,59.85
2023-02-25T14:50:37.978Z,59.30
2023-02-25T14:53:26.206Z,57.98
2023-02-25T14:56:05.302Z,57.32
2023-02-25T14:59:08.892Z,56.98
2023-02-25T15:01:46.526Z,54.88
2023-02-25T15:04:50.880Z,55.99
2023-02-25T15:07:28.037Z,57.95
2023-02-25T15:10:20.653Z,58.34
2023-02-25T15:13:03.748Z,57.86
2023-02-25T15:16:01.246Z,58.22
2023-02-25T15:19:16.876Z,57.68
2023-02-25T15:21:49.798Z,57.73
2023-02-25T15:24:40.842Z,57.24
2023-02-25T15:27:56.717Z,57.04
2023-02-25T15:30:29.040Z,57.68
2023-02-25T15:33:16.883Z,57.22
2023-02-25T15:36:01.555Z,56.63
2023-02-25T15:38:46.692Z,57.21
2023-02-25T15:41:43.467Z,55.90
2023-02-25T15:44:44.271Z,57.86
2023-02-25T15:47:44.781Z,57.02
2023-02-25T15:50:49.079Z,57.60
2023-02-25T15:53:38.242Z,60.26
2023-02-25T15:56:40.540Z,59.76
2023-02-25T15:59:08.870Z,58.24
2023-02-25T16:01:44.122Z,63.44
2023-02-25T16:04:44.280Z,64.14
2023-02-25T16:07:20.300Z,68.11
2023-02-25T16:09:54.931Z,70.88
2023-02-25T16:12:26.403Z,71.20
2023-02-25T16:14:57.616Z,71.76
2023-02-25T16:17:30.420Z,71.21
2023-02-25T16:20:01.347Z,70.41
2023-02-25T16:22:33.685Z,69.82
2023-02-25T16:25:02.779Z,69.00
2023-02-25T16:27:44.339Z,70.23
2023-02-25T16:30:16.804Z,69.98
2023-02-25T16:32:52.704Z,71.02
2023-02-25T16:35:27.328Z,70.00
2023-02-25T16:38:10.959Z,69.84
2023-02-25T16:40:40.126Z,69.95
2023-02-25T16:43:13.620Z,70.61
2023-02-25T16:45:46.296Z,71.00
2023-02-25T16:48:17.357Z,70.73
2023-02-25T16:50:51.060Z,70.41
2023-02-25T16:53:25.460Z,69.81
2023-02-25T16:55:59.268Z,71.41
2023-02-25T16:58:29.192Z,70.70
2023-02-25T17:00:59.417Z,69.21
2023-02-25T17:03:33.049Z,71.98
2023-02-25T17:06:19.335Z,71.45
2023-02-25T17:08:52.113Z,73.06
2023-02-25T17:11:25.275Z,71.54
2023-02-25T17:13:56.949Z,71.12
2023-02-25T17:16:31.859Z,69.82
2023-02-25T17:19:03.997Z,69.17
2023-02-25T17:21:37.834Z,68.98
2023-02-25T17:24:14.441Z,70.16
2023-02-25T17:26:43.723Z,70.45
2023-02-25T17:29:14.239Z,70.34
2023-02-25T17:31:47.216Z,70.56
2023-02-25T17:34:28.779Z,72.25
2023-02-25T17:36:57.805Z,74.27
2023-02-25T17:39:31.661Z,79.54
2023-02-25T17:42:01.336Z,82.43
2023-02-25T17:44:47.241Z,84.14
2023-02-25T17:47:22.304Z,85.83
2023-02-25T17:49:53.052Z,83.89
2023-02-25T17:52:26.806Z,82.54
2023-02-25T17:54:59.289Z,84.80
2023-02-25T17:57:31.644Z,84.75
2023-02-25T18:00:04.329Z,82.98
2023-02-25T18:02:37.653Z,80.52
2023-02-25T18:05:29.599Z,79.83
2023-02-25T18:08:07.860Z,79.06
2023-02-25T18:11:04.802Z,79.29
2023-02-25T18:13:36.156Z,78.64
2023-02-25T18:16:38.912Z,77.79
2023-02-25T18:19:36.125Z,76.66
2023-02-25T18:22:05.375Z,75.22
2023-02-25T18:24:35.379Z,74.47
2023-02-25T18:27:27.841Z,75.12
2023-02-25T18:29:59.619Z,74.63
2023-02-25T18:32:27.650Z,74.67
2023-02-25T18:34:58.410Z,73.30
2023-02-25T18:37:26.689Z,74.22
2023-02-25T18:39:54.537Z,72.67
2023-02-25T18:42:26.347Z,73.42
2023-02-25T18:44:57.534Z,73.38
2023-02-25T18:47:29.618Z,72.70
2023-02-25T18:50:01.034Z,73.03
2023-02-25T18:52:32.161Z,73.22
2023-02-25T18:55:00.015Z,72.08
2023-02-25T18:57:30.299Z,72.20
2023-02-25T18:59:58.854Z,72.28
2023-02-25T19:02:31.406Z,71.97
2023-02-25T19:05:08.732Z,71.26
2023-02-25T19:07:39.080Z,71.46
2023-02-25T19:10:08.388Z,69.95
2023-02-25T19:12:39.452Z,70.02
2023-02-25T19:15:12.149Z,70.76
2023-02-25T19:17:47.224Z,70.95
2023-02-25T19:20:18.965Z,70.39
2023-02-25T19:23:02.697Z,70.45
2023-02-25T19:25:31.992Z,70.47
2023-02-25T19:28:03.282Z,69.48
2023-02-25T19:30:33.863Z,69.24
2023-02-25T19:33:04.669Z,68.70
2023-02-25T19:35:33.988Z,69.27
2023-02-25T19:38:02.048Z,70.09
2023-02-25T19:40:32.760Z,68.94
2023-02-25T19:43:06.911Z,68.20
2023-02-25T19:45:41.935Z,69.44
2023-02-25T19:48:10.404Z,69.24
2023-02-25T19:50:44.956Z,69.20
2023-02-25T19:53:13.191Z,67.82
2023-02-25T19:55:41.469Z,67.29
2023-02-25T19:58:12.823Z,67.57
2023-02-25T20:00:45.905Z,68.27
2023-02-25T20:03:20.138Z,67.63
2023-02-25T20:05:48.703Z,66.55
2023-02-25T20:08:16.573Z,66.51
2023-02-25T20:10:46.932Z,65.80
2023-02-25T20:13:17.837Z,66.17
2023-02-25T20:15:45.764Z,66.56
2023-02-25T20:18:13.942Z,66.82
2023-02-25T20:20:43.206Z,65.94
2023-02-25T20:23:13.512Z,65.09
2023-02-25T20:25:43.286Z,65.14
2023-02-25T20:28:11.140Z,65.32
2023-02-25T20:30:40.461Z,65.43
2023-02-25T20:33:09.125Z,65.53
2023-02-25T20:35:37.333Z,66.60
2023-02-25T20:38:15.982Z,67.43
2023-02-25T20:40:44.011Z,67.04
2023-02-25T20:43:15.245Z,67.27
2023-02-25T20:45:45.770Z,67.30
2023-02-25T20:48:28.172Z,67.07
2023-02-25T20:51:01.868Z,67.48
2023-02-25T20:53:30.193Z,65.86
2023-02-25T20:55:58.664Z,66.80
2023-02-25T20:58:26.618Z,67.07
2023-02-25T21:00:59.358Z,66.36
2023-02-25T21:03:27.249Z,65.84
2023-02-25T21:06:04.303Z,65.67
2023-02-25T21:08:35.995Z,65.85
2023-02-25T21:11:06.884Z,65.64
2023-02-25T21:13:36.473Z,65.89
2023-02-25T21:16:19.091Z,65.75
2023-02-25T21:18:57.979Z,66.02
2023-02-25T21:21:28.324Z,66.42
2023-02-25T21:23:56.280Z,66.58
2023-02-25T21:26:24.625Z,65.41
2023-02-25T21:28:53.834Z,65.01
2023-02-25T21:31:23.318Z,65.79
2023-02-25T21:33:57.309Z,65.37
2023-02-25T21:36:35.480Z,65.47
2023-02-25T21:39:07.063Z,68.00
2023-02-25T21:41:36.350Z,64.64
2023-02-25T21:44:07.699Z,64.22
2023-02-25T21:46:37.987Z,64.09
2023-02-25T21:49:12.812Z,63.55
2023-02-25T21:51:41.291Z,62.98
2023-02-25T21:54:13.283Z,63.36
2023-02-25T21:56:41.779Z,63.09
2023-02-25T21:59:09.943Z,63.25
2023-02-25T22:01:42.259Z,63.14
2023-02-25T22:04:11.627Z,62.92
2023-02-25T22:06:39.991Z,63.10
2023-02-25T22:09:08.763Z,62.91
2023-02-25T22:11:40.025Z,62.85
2023-02-25T22:14:09.674Z,63.16
2023-02-25T22:16:45.039Z,63.31
2023-02-25T22:19:12.950Z,62.46
2023-02-25T22:21:41.355Z,62.82
2023-02-25T22:24:09.182Z,62.66
2023-02-25T22:26:37.809Z,63.06
2023-02-25T22:29:07.979Z,62.66
2023-02-25T22:31:36.380Z,62.83
2023-02-25T22:34:08.242Z,63.58
2023-02-25T22:36:41.347Z,63.16
2023-02-25T22:39:13.050Z,64.16
2023-02-25T22:41:42.710Z,63.00
2023-02-25T22:44:14.559Z,62.66
2023-02-25T22:46:42.523Z,62.02
2023-02-25T22:49:15.337Z,61.64
2023-02-25T22:51:45.679Z,60.93
2023-02-25T22:54:20.497Z,61.49
2023-02-25T22:56:49.704Z,61.72
2023-02-25T22:59:17.860Z,62.28
2023-02-25T23:01:45.795Z,62.93
2023-02-25T23:04:17.343Z,63.15
2023-02-25T23:06:47.165Z,63.63
2023-02-25T23:09:18.594Z,63.84
2023-02-25T23:11:49.904Z,64.02
2023-02-25T23:14:19.236Z,63.74
2023-02-25T23:16:47.239Z,63.65
2023-02-25T23:19:23.952Z,63.05
2023-02-25T23:21:52.418Z,63.43
2023-02-25T23:24:20.378Z,63.51
2023-02-25T23:26:50.436Z,63.55
2023-02-25T23:29:18.468Z,63.50
2023-02-25T23:31:52.371Z,63.55
2023-02-25T23:34:25.544Z,63.45
2023-02-25T23:37:09.169Z,63.76
2023-02-25T23:39:38.183Z,63.42
2023-02-25T23:42:09.661Z,63.45
2023-02-25T23:44:37.785Z,63.27
2023-02-25T23:47:05.769Z,62.44
2023-02-25T23:49:38.327Z,62.65
2023-02-25T23:52:08.773Z,62.86
2023-02-25T23:54:36.690Z,62.28
2023-02-25T23:57:04.737Z,62.99
2023-02-25T23:59:34.248Z,62.71
